KOSU/OSU METAR and TAF weather

Enter ICAO airport designator
Station Type Date Time Source
KOSU METAR 2019/12/08 18:53 UTC NOAA

KOSU 081853Z 16007KT 10SM OVC055 08/02 A3007 RMK AO2 SLP188 T00830022


Station Type Date Time Source
KOSU Decoded METAR 2019/12/08 18:53 UTC NOAA

OHIO STATE UNIVERSITY AIRPORT , OH, United States (KOSU) 40-05N 083-05W 280M
Dec 08, 2019 - 01:53 PM EST / 2019.12.08 1853 UTC
Wind: from the SSE (160 degrees) at 8 MPH (7 KT):0
Visibility: 10 mile(s):0
Sky conditions: overcast
Temperature: 46.9 F (8.3 C)
Dew Point: 36.0 F (2.2 C)
Relative Humidity: 65%
Pressure (altimeter): 30.07 in. Hg (1018 hPa)
ob: KOSU 081853Z 16007KT 10SM OVC055 08/02 A3007 RMK AO2 SLP188 T00830022
cycle: 19

Station Type Date Time Source
KOSU TAF UTC NOAA

Error!

Example: see airport list